sensor_id;sensor_type;location;lat;lon;timestamp;P1;durP1;ratioP1;P2;durP2;ratioP2
13872;SDS011;7006;51.494;11.964;2022-11-21T00:01:30;48.90;;;26.57;;
13872;SDS011;7006;51.494;11.964;2022-11-21T00:03:57;52.20;;;28.87;;
13872;SDS011;7006;51.494;11.964;2022-11-21T00:06:23;51.23;;;29.27;;
13872;SDS011;7006;51.494;11.964;2022-11-21T00:08:49;52.93;;;30.43;;
13872;SDS011;7006;51.494;11.964;2022-11-21T00:11:16;51.27;;;28.30;;
13872;SDS011;7006;51.494;11.964;2022-11-21T00:13:42;48.30;;;28.13;;
13872;SDS011;7006;51.494;11.964;2022-11-21T00:16:11;52.80;;;28.80;;
13872;SDS011;7006;51.494;11.964;2022-11-21T00:18:37;54.50;;;29.97;;
13872;SDS011;7006;51.494;11.964;2022-11-21T00:21:04;52.70;;;29.70;;
13872;SDS011;7006;51.494;11.964;2022-11-21T00:23:31;52.03;;;29.17;;
13872;SDS011;7006;51.494;11.964;2022-11-21T00:25:57;53.43;;;29.37;;
13872;SDS011;7006;51.494;11.964;2022-11-21T00:28:23;48.33;;;29.10;;
13872;SDS011;7006;51.494;11.964;2022-11-21T00:30:49;53.80;;;29.00;;
13872;SDS011;7006;51.494;11.964;2022-11-21T00:33:17;48.63;;;27.50;;
13872;SDS011;7006;51.494;11.964;2022-11-21T00:35:43;52.63;;;29.83;;
13872;SDS011;7006;51.494;11.964;2022-11-21T00:38:10;49.57;;;27.83;;
13872;SDS011;7006;51.494;11.964;2022-11-21T00:40:36;51.10;;;29.57;;
13872;SDS011;7006;51.494;11.964;2022-11-21T00:43:02;52.27;;;27.80;;
13872;SDS011;7006;51.494;11.964;2022-11-21T00:45:29;50.67;;;28.93;;
13872;SDS011;7006;51.494;11.964;2022-11-21T00:47:55;58.20;;;30.83;;
13872;SDS011;7006;51.494;11.964;2022-11-21T00:50:22;50.47;;;29.90;;
13872;SDS011;7006;51.494;11.964;2022-11-21T00:52:52;55.30;;;30.63;;
13872;SDS011;7006;51.494;11.964;2022-11-21T00:55:19;53.50;;;30.43;;
13872;SDS011;7006;51.494;11.964;2022-11-21T00:57:45;50.70;;;28.90;;
13872;SDS011;7006;51.494;11.964;2022-11-21T01:00:12;52.33;;;31.40;;
13872;SDS011;7006;51.494;11.964;2022-11-21T01:02:38;55.30;;;31.87;;
13872;SDS011;7006;51.494;11.964;2022-11-21T01:05:05;53.50;;;29.80;;
13872;SDS011;7006;51.494;11.964;2022-11-21T01:07:32;53.33;;;30.63;;
13872;SDS011;7006;51.494;11.964;2022-11-21T01:09:59;52.97;;;30.80;;
13872;SDS011;7006;51.494;11.964;2022-11-21T01:12:25;51.87;;;29.90;;
13872;SDS011;7006;51.494;11.964;2022-11-21T01:14:51;54.80;;;29.27;;
13872;SDS011;7006;51.494;11.964;2022-11-21T01:17:18;53.53;;;29.83;;
13872;SDS011;7006;51.494;11.964;2022-11-21T01:19:44;54.37;;;30.07;;
13872;SDS011;7006;51.494;11.964;2022-11-21T01:22:10;52.23;;;30.07;;
13872;SDS011;7006;51.494;11.964;2022-11-21T01:24:38;55.40;;;29.83;;
13872;SDS011;7006;51.494;11.964;2022-11-21T01:27:04;62.67;;;31.40;;
13872;SDS011;7006;51.494;11.964;2022-11-21T01:29:30;54.73;;;28.90;;
13872;SDS011;7006;51.494;11.964;2022-11-21T01:31:57;55.43;;;31.03;;
13872;SDS011;7006;51.494;11.964;2022-11-21T01:34:23;59.43;;;31.60;;
13872;SDS011;7006;51.494;11.964;2022-11-21T01:36:49;52.57;;;29.03;;
13872;SDS011;7006;51.494;11.964;2022-11-21T01:39:16;59.83;;;31.77;;
13872;SDS011;7006;51.494;11.964;2022-11-21T01:41:44;52.97;;;29.10;;
13872;SDS011;7006;51.494;11.964;2022-11-21T01:44:17;61.00;;;32.00;;
13872;SDS011;7006;51.494;11.964;2022-11-21T01:46:43;52.00;;;28.87;;
13872;SDS011;7006;51.494;11.964;2022-11-21T01:49:11;54.63;;;29.00;;
13872;SDS011;7006;51.494;11.964;2022-11-21T01:51:39;52.27;;;29.17;;
13872;SDS011;7006;51.494;11.964;2022-11-21T01:54:08;52.80;;;28.33;;
13872;SDS011;7006;51.494;11.964;2022-11-21T01:56:37;51.97;;;29.20;;
13872;SDS011;7006;51.494;11.964;2022-11-21T01:59:06;60.17;;;29.37;;
13872;SDS011;7006;51.494;11.964;2022-11-21T02:01:33;48.43;;;28.63;;
13872;SDS011;7006;51.494;11.964;2022-11-21T02:04:00;54.50;;;29.50;;
13872;SDS011;7006;51.494;11.964;2022-11-21T02:06:27;54.00;;;28.37;;
13872;SDS011;7006;51.494;11.964;2022-11-21T02:08:54;50.90;;;29.13;;
13872;SDS011;7006;51.494;11.964;2022-11-21T02:11:24;52.33;;;29.30;;
13872;SDS011;7006;51.494;11.964;2022-11-21T02:13:51;56.13;;;28.50;;
13872;SDS011;7006;51.494;11.964;2022-11-21T02:16:19;57.67;;;30.40;;
13872;SDS011;7006;51.494;11.964;2022-11-21T02:18:45;53.67;;;31.00;;
13872;SDS011;7006;51.494;11.964;2022-11-21T02:21:12;57.60;;;29.70;;
13872;SDS011;7006;51.494;11.964;2022-11-21T02:23:44;48.17;;;26.90;;
13872;SDS011;7006;51.494;11.964;2022-11-21T02:26:13;52.70;;;28.17;;
13872;SDS011;7006;51.494;11.964;2022-11-21T02:28:39;52.67;;;27.10;;
13872;SDS011;7006;51.494;11.964;2022-11-21T02:31:06;52.70;;;29.00;;
13872;SDS011;7006;51.494;11.964;2022-11-21T02:33:32;53.03;;;28.97;;
13872;SDS011;7006;51.494;11.964;2022-11-21T02:35:59;56.97;;;30.17;;
13872;SDS011;7006;51.494;11.964;2022-11-21T02:38:27;56.00;;;28.50;;
13872;SDS011;7006;51.494;11.964;2022-11-21T02:40:56;58.67;;;30.23;;
13872;SDS011;7006;51.494;11.964;2022-11-21T02:43:25;52.90;;;28.43;;
13872;SDS011;7006;51.494;11.964;2022-11-21T02:45:53;54.60;;;28.17;;
13872;SDS011;7006;51.494;11.964;2022-11-21T02:48:20;52.60;;;27.73;;
13872;SDS011;7006;51.494;11.964;2022-11-21T02:50:46;60.87;;;30.13;;
13872;SDS011;7006;51.494;11.964;2022-11-21T02:53:13;53.90;;;28.43;;
13872;SDS011;7006;51.494;11.964;2022-11-21T02:55:40;51.20;;;28.30;;
13872;SDS011;7006;51.494;11.964;2022-11-21T02:58:06;57.07;;;29.37;;
13872;SDS011;7006;51.494;11.964;2022-11-21T03:00:36;55.33;;;28.33;;
13872;SDS011;7006;51.494;11.964;2022-11-21T03:03:03;55.60;;;28.47;;
13872;SDS011;7006;51.494;11.964;2022-11-21T03:05:29;56.93;;;29.20;;
13872;SDS011;7006;51.494;11.964;2022-11-21T03:07:55;52.00;;;28.97;;
13872;SDS011;7006;51.494;11.964;2022-11-21T03:10:22;51.97;;;28.73;;
13872;SDS011;7006;51.494;11.964;2022-11-21T03:12:48;55.60;;;29.43;;
13872;SDS011;7006;51.494;11.964;2022-11-21T03:15:14;52.60;;;28.00;;
13872;SDS011;7006;51.494;11.964;2022-11-21T03:17:42;57.50;;;27.20;;
13872;SDS011;7006;51.494;11.964;2022-11-21T03:20:09;48.77;;;25.47;;
13872;SDS011;7006;51.494;11.964;2022-11-21T03:22:35;52.03;;;28.00;;
13872;SDS011;7006;51.494;11.964;2022-11-21T03:25:02;52.37;;;27.13;;
13872;SDS011;7006;51.494;11.964;2022-11-21T03:27:28;54.63;;;27.27;;
13872;SDS011;7006;51.494;11.964;2022-11-21T03:29:54;50.57;;;26.80;;
13872;SDS011;7006;51.494;11.964;2022-11-21T03:32:21;51.17;;;26.97;;
13872;SDS011;7006;51.494;11.964;2022-11-21T03:34:48;49.87;;;27.77;;
13872;SDS011;7006;51.494;11.964;2022-11-21T03:37:15;53.37;;;26.67;;
13872;SDS011;7006;51.494;11.964;2022-11-21T03:39:41;48.03;;;25.63;;
13872;SDS011;7006;51.494;11.964;2022-11-21T03:42:08;50.47;;;26.07;;
13872;SDS011;7006;51.494;11.964;2022-11-21T03:44:34;54.20;;;28.47;;
13872;SDS011;7006;51.494;11.964;2022-11-21T03:47:00;51.00;;;26.80;;
13872;SDS011;7006;51.494;11.964;2022-11-21T03:49:27;54.13;;;27.90;;
13872;SDS011;7006;51.494;11.964;2022-11-21T03:51:54;50.57;;;26.30;;
13872;SDS011;7006;51.494;11.964;2022-11-21T03:54:21;53.17;;;26.57;;
13872;SDS011;7006;51.494;11.964;2022-11-21T03:56:47;54.90;;;29.70;;
13872;SDS011;7006;51.494;11.964;2022-11-21T03:59:13;50.87;;;27.07;;
13872;SDS011;7006;51.494;11.964;2022-11-21T04:01:39;49.37;;;27.00;;
13872;SDS011;7006;51.494;11.964;2022-11-21T04:04:06;47.30;;;26.93;;
13872;SDS011;7006;51.494;11.964;2022-11-21T04:06:32;50.13;;;27.23;;
13872;SDS011;7006;51.494;11.964;2022-11-21T04:09:00;48.80;;;24.90;;
13872;SDS011;7006;51.494;11.964;2022-11-21T04:11:26;44.57;;;24.57;;
13872;SDS011;7006;51.494;11.964;2022-11-21T04:13:52;45.77;;;25.87;;
13872;SDS011;7006;51.494;11.964;2022-11-21T04:16:19;51.97;;;27.33;;
13872;SDS011;7006;51.494;11.964;2022-11-21T04:18:45;53.23;;;27.47;;
13872;SDS011;7006;51.494;11.964;2022-11-21T04:21:12;48.70;;;26.53;;
13872;SDS011;7006;51.494;11.964;2022-11-21T04:23:38;43.53;;;26.00;;
13872;SDS011;7006;51.494;11.964;2022-11-21T04:26:06;44.43;;;26.10;;
13872;SDS011;7006;51.494;11.964;2022-11-21T04:28:32;48.87;;;26.13;;
13872;SDS011;7006;51.494;11.964;2022-11-21T04:31:02;48.83;;;25.40;;
13872;SDS011;7006;51.494;11.964;2022-11-21T04:33:29;48.80;;;26.33;;
13872;SDS011;7006;51.494;11.964;2022-11-21T04:35:55;48.23;;;26.27;;
13872;SDS011;7006;51.494;11.964;2022-11-21T04:38:21;44.73;;;25.10;;
13872;SDS011;7006;51.494;11.964;2022-11-21T04:40:47;52.43;;;28.10;;
13872;SDS011;7006;51.494;11.964;2022-11-21T04:43:15;48.57;;;27.53;;
13872;SDS011;7006;51.494;11.964;2022-11-21T04:45:41;52.63;;;27.53;;
13872;SDS011;7006;51.494;11.964;2022-11-21T04:48:08;52.57;;;27.27;;
13872;SDS011;7006;51.494;11.964;2022-11-21T04:50:35;60.33;;;30.27;;
13872;SDS011;7006;51.494;11.964;2022-11-21T04:53:01;53.43;;;28.53;;
13872;SDS011;7006;51.494;11.964;2022-11-21T04:55:28;56.60;;;29.13;;
13872;SDS011;7006;51.494;11.964;2022-11-21T04:57:55;59.50;;;29.60;;
13872;SDS011;7006;51.494;11.964;2022-11-21T05:00:23;58.10;;;31.53;;
13872;SDS011;7006;51.494;11.964;2022-11-21T05:02:49;66.40;;;30.90;;
13872;SDS011;7006;51.494;11.964;2022-11-21T05:05:15;58.87;;;30.87;;
13872;SDS011;7006;51.494;11.964;2022-11-21T05:07:42;67.37;;;30.87;;
13872;SDS011;7006;51.494;11.964;2022-11-21T05:10:08;65.67;;;28.43;;
13872;SDS011;7006;51.494;11.964;2022-11-21T05:12:34;61.20;;;32.47;;
13872;SDS011;7006;51.494;11.964;2022-11-21T05:15:18;66.10;;;31.13;;
13872;SDS011;7006;51.494;11.964;2022-11-21T05:17:46;68.17;;;31.77;;
13872;SDS011;7006;51.494;11.964;2022-11-21T05:20:12;62.93;;;29.33;;
13872;SDS011;7006;51.494;11.964;2022-11-21T05:22:39;57.40;;;29.57;;
13872;SDS011;7006;51.494;11.964;2022-11-21T05:25:05;65.03;;;28.77;;
13872;SDS011;7006;51.494;11.964;2022-11-21T05:27:31;59.87;;;28.47;;
13872;SDS011;7006;51.494;11.964;2022-11-21T05:29:58;54.87;;;28.33;;
13872;SDS011;7006;51.494;11.964;2022-11-21T05:32:24;59.10;;;29.90;;
13872;SDS011;7006;51.494;11.964;2022-11-21T05:34:51;55.07;;;29.40;;
13872;SDS011;7006;51.494;11.964;2022-11-21T05:37:18;56.13;;;28.30;;
13872;SDS011;7006;51.494;11.964;2022-11-21T05:39:45;54.40;;;28.00;;
13872;SDS011;7006;51.494;11.964;2022-11-21T05:42:12;57.20;;;27.90;;
13872;SDS011;7006;51.494;11.964;2022-11-21T05:44:38;51.57;;;26.93;;
13872;SDS011;7006;51.494;11.964;2022-11-21T05:47:03;55.90;;;28.73;;
13872;SDS011;7006;51.494;11.964;2022-11-21T05:49:30;50.17;;;25.93;;
13872;SDS011;7006;51.494;11.964;2022-11-21T05:51:57;59.93;;;27.67;;
13872;SDS011;7006;51.494;11.964;2022-11-21T05:54:24;63.37;;;28.13;;
13872;SDS011;7006;51.494;11.964;2022-11-21T05:56:50;53.10;;;26.37;;
13872;SDS011;7006;51.494;11.964;2022-11-21T05:59:16;61.60;;;29.30;;
13872;SDS011;7006;51.494;11.964;2022-11-21T06:01:42;60.53;;;28.87;;
13872;SDS011;7006;51.494;11.964;2022-11-21T06:04:26;53.83;;;27.97;;
13872;SDS011;7006;51.494;11.964;2022-11-21T06:06:52;54.63;;;27.20;;
13872;SDS011;7006;51.494;11.964;2022-11-21T06:09:20;46.67;;;24.53;;
13872;SDS011;7006;51.494;11.964;2022-11-21T06:11:46;56.23;;;26.40;;
13872;SDS011;7006;51.494;11.964;2022-11-21T06:14:13;46.80;;;25.63;;
13872;SDS011;7006;51.494;11.964;2022-11-21T06:16:39;53.73;;;25.90;;
13872;SDS011;7006;51.494;11.964;2022-11-21T06:19:05;51.10;;;27.00;;
13872;SDS011;7006;51.494;11.964;2022-11-21T06:21:32;59.20;;;26.80;;
13872;SDS011;7006;51.494;11.964;2022-11-21T06:24:01;54.53;;;27.80;;
13872;SDS011;7006;51.494;11.964;2022-11-21T06:26:29;54.73;;;27.03;;
13872;SDS011;7006;51.494;11.964;2022-11-21T06:28:55;59.37;;;27.17;;
13872;SDS011;7006;51.494;11.964;2022-11-21T06:31:22;49.47;;;25.97;;
13872;SDS011;7006;51.494;11.964;2022-11-21T06:33:51;48.27;;;25.47;;
13872;SDS011;7006;51.494;11.964;2022-11-21T06:36:17;46.93;;;22.73;;
13872;SDS011;7006;51.494;11.964;2022-11-21T06:38:44;47.53;;;23.47;;
13872;SDS011;7006;51.494;11.964;2022-11-21T06:41:11;47.33;;;25.27;;
13872;SDS011;7006;51.494;11.964;2022-11-21T06:43:39;52.30;;;24.37;;
13872;SDS011;7006;51.494;11.964;2022-11-21T06:46:05;46.63;;;23.20;;
13872;SDS011;7006;51.494;11.964;2022-11-21T06:48:32;45.53;;;23.00;;
13872;SDS011;7006;51.494;11.964;2022-11-21T06:51:02;45.63;;;22.50;;
13872;SDS011;7006;51.494;11.964;2022-11-21T06:53:28;44.23;;;23.83;;
13872;SDS011;7006;51.494;11.964;2022-11-21T06:55:57;37.93;;;21.80;;
13872;SDS011;7006;51.494;11.964;2022-11-21T06:58:23;44.50;;;23.27;;
13872;SDS011;7006;51.494;11.964;2022-11-21T07:00:51;41.37;;;21.60;;
13872;SDS011;7006;51.494;11.964;2022-11-21T07:03:17;46.57;;;22.57;;
13872;SDS011;7006;51.494;11.964;2022-11-21T07:05:43;49.27;;;23.07;;
13872;SDS011;7006;51.494;11.964;2022-11-21T07:08:10;52.20;;;25.20;;
13872;SDS011;7006;51.494;11.964;2022-11-21T07:10:36;51.47;;;23.67;;
13872;SDS011;7006;51.494;11.964;2022-11-21T07:13:02;52.37;;;23.90;;
13872;SDS011;7006;51.494;11.964;2022-11-21T07:15:47;51.50;;;23.10;;
13872;SDS011;7006;51.494;11.964;2022-11-21T07:18:15;51.33;;;24.27;;
13872;SDS011;7006;51.494;11.964;2022-11-21T07:20:41;51.80;;;24.83;;
13872;SDS011;7006;51.494;11.964;2022-11-21T07:23:08;57.23;;;24.97;;
13872;SDS011;7006;51.494;11.964;2022-11-21T07:25:34;54.37;;;24.97;;
13872;SDS011;7006;51.494;11.964;2022-11-21T07:28:01;51.27;;;25.83;;
13872;SDS011;7006;51.494;11.964;2022-11-21T07:30:28;51.57;;;24.57;;
13872;SDS011;7006;51.494;11.964;2022-11-21T07:32:55;58.77;;;27.67;;
13872;SDS011;7006;51.494;11.964;2022-11-21T07:35:22;54.43;;;24.97;;
13872;SDS011;7006;51.494;11.964;2022-11-21T07:37:49;53.00;;;26.13;;
13872;SDS011;7006;51.494;11.964;2022-11-21T07:40:15;54.73;;;24.97;;
13872;SDS011;7006;51.494;11.964;2022-11-21T07:42:41;53.83;;;25.30;;
13872;SDS011;7006;51.494;11.964;2022-11-21T07:45:08;56.63;;;26.90;;
13872;SDS011;7006;51.494;11.964;2022-11-21T07:47:34;56.83;;;26.07;;
13872;SDS011;7006;51.494;11.964;2022-11-21T07:50:01;57.97;;;25.77;;
13872;SDS011;7006;51.494;11.964;2022-11-21T07:52:28;55.70;;;28.03;;
13872;SDS011;7006;51.494;11.964;2022-11-21T07:54:55;53.23;;;24.17;;
13872;SDS011;7006;51.494;11.964;2022-11-21T07:57:21;52.50;;;23.93;;
13872;SDS011;7006;51.494;11.964;2022-11-21T07:59:47;46.43;;;25.07;;
13872;SDS011;7006;51.494;11.964;2022-11-21T08:02:17;52.80;;;25.90;;
13872;SDS011;7006;51.494;11.964;2022-11-21T08:04:43;53.87;;;25.40;;
13872;SDS011;7006;51.494;11.964;2022-11-21T08:07:09;53.63;;;26.10;;
13872;SDS011;7006;51.494;11.964;2022-11-21T08:09:37;47.77;;;24.20;;
13872;SDS011;7006;51.494;11.964;2022-11-21T08:12:04;52.13;;;26.43;;
13872;SDS011;7006;51.494;11.964;2022-11-21T08:14:30;52.00;;;26.63;;
13872;SDS011;7006;51.494;11.964;2022-11-21T08:16:57;46.37;;;25.67;;
13872;SDS011;7006;51.494;11.964;2022-11-21T08:19:24;53.43;;;24.97;;
13872;SDS011;7006;51.494;11.964;2022-11-21T08:21:50;53.60;;;27.23;;
13872;SDS011;7006;51.494;11.964;2022-11-21T08:24:16;48.60;;;24.70;;
13872;SDS011;7006;51.494;11.964;2022-11-21T08:26:44;48.00;;;26.00;;
13872;SDS011;7006;51.494;11.964;2022-11-21T08:29:10;50.63;;;26.47;;
13872;SDS011;7006;51.494;11.964;2022-11-21T08:31:37;49.50;;;24.47;;
13872;SDS011;7006;51.494;11.964;2022-11-21T08:34:04;48.30;;;25.73;;
13872;SDS011;7006;51.494;11.964;2022-11-21T08:36:30;50.90;;;26.90;;
13872;SDS011;7006;51.494;11.964;2022-11-21T08:38:57;54.30;;;27.00;;
13872;SDS011;7006;51.494;11.964;2022-11-21T08:41:23;54.80;;;26.77;;
13872;SDS011;7006;51.494;11.964;2022-11-21T08:44:08;58.90;;;26.80;;
13872;SDS011;7006;51.494;11.964;2022-11-21T08:46:35;59.67;;;27.40;;
13872;SDS011;7006;51.494;11.964;2022-11-21T08:49:02;65.57;;;27.63;;
13872;SDS011;7006;51.494;11.964;2022-11-21T08:51:28;58.60;;;26.87;;
13872;SDS011;7006;51.494;11.964;2022-11-21T08:53:54;51.83;;;27.73;;
13872;SDS011;7006;51.494;11.964;2022-11-21T08:56:21;55.90;;;27.13;;
13872;SDS011;7006;51.494;11.964;2022-11-21T08:58:47;55.47;;;28.90;;
13872;SDS011;7006;51.494;11.964;2022-11-21T09:01:15;49.93;;;24.87;;
13872;SDS011;7006;51.494;11.964;2022-11-21T09:03:41;53.77;;;27.43;;
13872;SDS011;7006;51.494;11.964;2022-11-21T09:06:07;54.97;;;26.13;;
13872;SDS011;7006;51.494;11.964;2022-11-21T09:08:34;51.03;;;25.20;;
13872;SDS011;7006;51.494;11.964;2022-11-21T09:11:02;45.67;;;24.07;;
13872;SDS011;7006;51.494;11.964;2022-11-21T09:13:29;46.67;;;22.67;;
13872;SDS011;7006;51.494;11.964;2022-11-21T09:15:56;41.73;;;22.03;;
13872;SDS011;7006;51.494;11.964;2022-11-21T09:18:41;44.33;;;22.30;;
13872;SDS011;7006;51.494;11.964;2022-11-21T09:21:08;44.33;;;23.73;;
13872;SDS011;7006;51.494;11.964;2022-11-21T09:23:34;43.30;;;22.07;;
13872;SDS011;7006;51.494;11.964;2022-11-21T09:26:00;43.13;;;22.63;;
13872;SDS011;7006;51.494;11.964;2022-11-21T09:28:27;41.70;;;21.70;;
13872;SDS011;7006;51.494;11.964;2022-11-21T09:30:53;37.83;;;21.83;;
13872;SDS011;7006;51.494;11.964;2022-11-21T09:33:19;40.60;;;21.83;;
13872;SDS011;7006;51.494;11.964;2022-11-21T09:35:47;37.17;;;21.03;;
13872;SDS011;7006;51.494;11.964;2022-11-21T09:38:13;37.13;;;19.40;;
13872;SDS011;7006;51.494;11.964;2022-11-21T09:40:40;35.60;;;19.60;;
13872;SDS011;7006;51.494;11.964;2022-11-21T09:43:26;31.80;;;17.10;;
13872;SDS011;7006;51.494;11.964;2022-11-21T09:46:00;32.80;;;17.77;;
13872;SDS011;7006;51.494;11.964;2022-11-21T09:48:29;33.40;;;16.90;;
13872;SDS011;7006;51.494;11.964;2022-11-21T09:50:59;33.67;;;18.67;;
13872;SDS011;7006;51.494;11.964;2022-11-21T09:53:27;31.13;;;16.07;;
13872;SDS011;7006;51.494;11.964;2022-11-21T09:55:56;29.07;;;16.97;;
13872;SDS011;7006;51.494;11.964;2022-11-21T09:58:24;30.90;;;16.60;;
13872;SDS011;7006;51.494;11.964;2022-11-21T10:00:51;32.00;;;17.30;;
13872;SDS011;7006;51.494;11.964;2022-11-21T10:03:19;33.37;;;18.00;;
13872;SDS011;7006;51.494;11.964;2022-11-21T10:05:47;35.50;;;16.30;;
13872;SDS011;7006;51.494;11.964;2022-11-21T10:08:16;31.77;;;16.73;;
13872;SDS011;7006;51.494;11.964;2022-11-21T10:10:52;27.57;;;16.30;;
13872;SDS011;7006;51.494;11.964;2022-11-21T10:13:22;25.20;;;14.50;;
13872;SDS011;7006;51.494;11.964;2022-11-21T10:15:55;30.67;;;17.20;;
13872;SDS011;7006;51.494;11.964;2022-11-21T10:18:26;27.03;;;15.17;;
13872;SDS011;7006;51.494;11.964;2022-11-21T10:20:58;28.87;;;16.33;;
13872;SDS011;7006;51.494;11.964;2022-11-21T10:23:42;25.47;;;13.90;;
13872;SDS011;7006;51.494;11.964;2022-11-21T10:26:16;26.60;;;15.70;;
13872;SDS011;7006;51.494;11.964;2022-11-21T10:28:48;24.00;;;14.50;;
13872;SDS011;7006;51.494;11.964;2022-11-21T10:31:16;26.37;;;15.03;;
13872;SDS011;7006;51.494;11.964;2022-11-21T10:33:44;28.33;;;13.70;;
13872;SDS011;7006;51.494;11.964;2022-11-21T10:36:12;28.87;;;14.60;;
13872;SDS011;7006;51.494;11.964;2022-11-21T10:38:43;23.60;;;14.50;;
13872;SDS011;7006;51.494;11.964;2022-11-21T10:41:13;26.00;;;15.70;;
13872;SDS011;7006;51.494;11.964;2022-11-21T10:43:42;26.63;;;14.30;;
13872;SDS011;7006;51.494;11.964;2022-11-21T10:46:26;28.57;;;15.43;;
13872;SDS011;7006;51.494;11.964;2022-11-21T10:48:54;24.30;;;14.17;;
13872;SDS011;7006;51.494;11.964;2022-11-21T10:51:24;25.20;;;14.93;;
13872;SDS011;7006;51.494;11.964;2022-11-21T10:54:03;20.47;;;12.57;;
13872;SDS011;7006;51.494;11.964;2022-11-21T10:56:47;22.73;;;13.57;;
13872;SDS011;7006;51.494;11.964;2022-11-21T10:59:18;22.80;;;12.97;;
13872;SDS011;7006;51.494;11.964;2022-11-21T11:01:46;23.43;;;14.37;;
13872;SDS011;7006;51.494;11.964;2022-11-21T11:04:19;21.50;;;12.87;;
13872;SDS011;7006;51.494;11.964;2022-11-21T11:06:46;20.90;;;12.13;;
13872;SDS011;7006;51.494;11.964;2022-11-21T11:09:31;21.00;;;11.60;;
13872;SDS011;7006;51.494;11.964;2022-11-21T11:14:42;16.27;;;9.83;;
13872;SDS011;7006;51.494;11.964;2022-11-21T11:17:14;22.00;;;10.60;;
13872;SDS011;7006;51.494;11.964;2022-11-21T11:19:41;20.53;;;11.00;;
13872;SDS011;7006;51.494;11.964;2022-11-21T11:22:25;16.20;;;9.93;;
13872;SDS011;7006;51.494;11.964;2022-11-21T11:24:53;20.97;;;11.03;;
13872;SDS011;7006;51.494;11.964;2022-11-21T11:27:25;18.07;;;10.67;;
13872;SDS011;7006;51.494;11.964;2022-11-21T11:29:51;17.83;;;10.80;;
13872;SDS011;7006;51.494;11.964;2022-11-21T11:32:17;18.47;;;11.30;;
13872;SDS011;7006;51.494;11.964;2022-11-21T11:34:46;18.17;;;10.70;;
13872;SDS011;7006;51.494;11.964;2022-11-21T11:37:19;18.43;;;10.37;;
13872;SDS011;7006;51.494;11.964;2022-11-21T11:39:49;22.13;;;13.00;;
13872;SDS011;7006;51.494;11.964;2022-11-21T11:42:31;22.30;;;14.00;;
13872;SDS011;7006;51.494;11.964;2022-11-21T11:45:28;28.17;;;15.10;;
13872;SDS011;7006;51.494;11.964;2022-11-21T11:48:13;21.20;;;12.00;;
13872;SDS011;7006;51.494;11.964;2022-11-21T11:50:40;24.63;;;14.20;;
13872;SDS011;7006;51.494;11.964;2022-11-21T11:53:10;21.10;;;11.90;;
13872;SDS011;7006;51.494;11.964;2022-11-21T11:55:38;24.20;;;14.53;;
13872;SDS011;7006;51.494;11.964;2022-11-21T11:58:10;19.80;;;11.27;;
13872;SDS011;7006;51.494;11.964;2022-11-21T12:00:39;26.67;;;13.20;;
13872;SDS011;7006;51.494;11.964;2022-11-21T12:03:10;18.27;;;11.17;;
13872;SDS011;7006;51.494;11.964;2022-11-21T12:05:38;21.60;;;12.10;;
13872;SDS011;7006;51.494;11.964;2022-11-21T12:08:12;21.10;;;11.97;;
13872;SDS011;7006;51.494;11.964;2022-11-21T12:10:42;24.63;;;13.00;;
13872;SDS011;7006;51.494;11.964;2022-11-21T12:13:25;20.03;;;11.40;;
13872;SDS011;7006;51.494;11.964;2022-11-21T12:15:52;20.37;;;11.17;;
13872;SDS011;7006;51.494;11.964;2022-11-21T12:18:24;20.97;;;12.37;;
13872;SDS011;7006;51.494;11.964;2022-11-21T12:20:53;20.83;;;11.43;;
13872;SDS011;7006;51.494;11.964;2022-11-21T12:23:21;21.33;;;12.03;;
13872;SDS011;7006;51.494;11.964;2022-11-21T12:25:51;20.67;;;11.97;;
13872;SDS011;7006;51.494;11.964;2022-11-21T12:28:20;20.00;;;11.50;;
13872;SDS011;7006;51.494;11.964;2022-11-21T12:30:51;27.23;;;13.33;;
13872;SDS011;7006;51.494;11.964;2022-11-21T12:33:20;23.70;;;14.00;;
13872;SDS011;7006;51.494;11.964;2022-11-21T12:38:33;27.70;;;15.00;;
13872;SDS011;7006;51.494;11.964;2022-11-21T12:41:04;29.70;;;15.00;;
13872;SDS011;7006;51.494;11.964;2022-11-21T12:43:58;27.20;;;14.73;;
13872;SDS011;7006;51.494;11.964;2022-11-21T12:46:27;25.97;;;15.03;;
13872;SDS011;7006;51.494;11.964;2022-11-21T12:48:55;27.37;;;15.40;;
13872;SDS011;7006;51.494;11.964;2022-11-21T12:51:49;29.80;;;15.97;;
13872;SDS011;7006;51.494;11.964;2022-11-21T12:54:39;25.77;;;15.03;;
13872;SDS011;7006;51.494;11.964;2022-11-21T12:57:12;31.40;;;15.77;;
13872;SDS011;7006;51.494;11.964;2022-11-21T12:59:42;27.67;;;14.97;;
13872;SDS011;7006;51.494;11.964;2022-11-21T13:02:16;32.30;;;16.90;;
13872;SDS011;7006;51.494;11.964;2022-11-21T13:04:44;31.10;;;16.57;;
13872;SDS011;7006;51.494;11.964;2022-11-21T13:07:12;34.17;;;16.97;;
13872;SDS011;7006;51.494;11.964;2022-11-21T13:09:39;34.03;;;17.57;;
13872;SDS011;7006;51.494;11.964;2022-11-21T13:12:07;32.07;;;16.60;;
13872;SDS011;7006;51.494;11.964;2022-11-21T13:14:36;27.20;;;15.23;;
13872;SDS011;7006;51.494;11.964;2022-11-21T13:17:10;31.73;;;16.40;;
13872;SDS011;7006;51.494;11.964;2022-11-21T13:19:42;29.70;;;14.80;;
13872;SDS011;7006;51.494;11.964;2022-11-21T13:24:55;34.77;;;17.70;;
13872;SDS011;7006;51.494;11.964;2022-11-21T13:27:26;32.37;;;18.43;;
13872;SDS011;7006;51.494;11.964;2022-11-21T13:32:49;47.77;;;20.70;;
13872;SDS011;7006;51.494;11.964;2022-11-21T13:38:02;53.00;;;23.20;;
13872;SDS011;7006;51.494;11.964;2022-11-21T13:40:39;57.53;;;23.27;;
13872;SDS011;7006;51.494;11.964;2022-11-21T13:43:26;51.10;;;25.20;;
13872;SDS011;7006;51.494;11.964;2022-11-21T13:45:51;51.03;;;23.30;;
13872;SDS011;7006;51.494;11.964;2022-11-21T13:48:30;56.43;;;25.30;;
13872;SDS011;7006;51.494;11.964;2022-11-21T13:51:07;55.07;;;23.47;;
13872;SDS011;7006;51.494;11.964;2022-11-21T13:53:52;49.73;;;22.10;;
13872;SDS011;7006;51.494;11.964;2022-11-21T13:56:23;57.00;;;26.97;;
13872;SDS011;7006;51.494;11.964;2022-11-21T13:58:52;59.30;;;26.90;;
13872;SDS011;7006;51.494;11.964;2022-11-21T14:04:11;63.10;;;27.67;;
13872;SDS011;7006;51.494;11.964;2022-11-21T14:06:42;53.73;;;25.83;;
13872;SDS011;7006;51.494;11.964;2022-11-21T14:09:23;51.80;;;25.13;;
13872;SDS011;7006;51.494;11.964;2022-11-21T14:11:50;55.73;;;25.60;;
13872;SDS011;7006;51.494;11.964;2022-11-21T14:14:22;53.77;;;25.00;;
13872;SDS011;7006;51.494;11.964;2022-11-21T14:16:49;54.00;;;25.07;;
13872;SDS011;7006;51.494;11.964;2022-11-21T14:19:18;51.63;;;24.30;;
13872;SDS011;7006;51.494;11.964;2022-11-21T14:21:45;60.93;;;25.97;;
13872;SDS011;7006;51.494;11.964;2022-11-21T14:24:13;62.33;;;27.90;;
13872;SDS011;7006;51.494;11.964;2022-11-21T14:26:43;59.67;;;27.23;;
13872;SDS011;7006;51.494;11.964;2022-11-21T14:29:15;60.90;;;27.60;;
13872;SDS011;7006;51.494;11.964;2022-11-21T14:31:45;63.20;;;27.27;;
13872;SDS011;7006;51.494;11.964;2022-11-21T14:34:12;71.23;;;28.37;;
13872;SDS011;7006;51.494;11.964;2022-11-21T14:36:38;77.93;;;29.03;;
13872;SDS011;7006;51.494;11.964;2022-11-21T14:39:06;71.77;;;28.40;;
13872;SDS011;7006;51.494;11.964;2022-11-21T14:41:33;83.80;;;32.03;;
13872;SDS011;7006;51.494;11.964;2022-11-21T14:44:03;64.10;;;27.87;;
13872;SDS011;7006;51.494;11.964;2022-11-21T14:46:30;60.73;;;25.47;;